Leonard, Missouri
Current Conditions -  °F | °C
As of 1:55 PM on Thursday 30 Oct 2014 (Local Time) from KIRK Reporting Station
Clear Clear  
Wind Chill: 61°   Ceiling: Unl
Heat Index: 61°   Visibility: 10mi
Dew Point: 44°   Wind: 5mph
Humidity: 54%   Direction: 40°NE
Pressure: 29.98"   Gusts: NA
Location:  39.9°N, 92.18°W
Report Text: KIRK 301855Z AUTO 04004KT 10SM CLR 16/07 A2998 RMK AO2 SLP158 T01610067
Loading
Personal Weather Stations






























Interactive Weather Map
Tropical Storm Tracking
New forecast layout! Learn more

10-Day Weather Forecast

Advertisements
Track Severe Weather on mobile